sensor_id;sensor_type;location;lat;lon;timestamp;pressure;altitude;pressure_sealevel;temperature;humidity
33404;BME280;19751;40.274;18.268;2023-01-30T00:00:56;101450.31;;;6.63;100.00
33404;BME280;19751;40.274;18.268;2023-01-30T00:03:23;101450.47;;;6.62;100.00
33404;BME280;19751;40.274;18.268;2023-01-30T00:05:49;101446.13;;;6.61;100.00
33404;BME280;19751;40.274;18.268;2023-01-30T00:08:15;101449.34;;;6.64;100.00
33404;BME280;19751;40.274;18.268;2023-01-30T00:10:42;101442.28;;;6.63;100.00
33404;BME280;19751;40.274;18.268;2023-01-30T00:13:08;101441.16;;;6.66;100.00
33404;BME280;19751;40.274;18.268;2023-01-30T00:15:34;101444.97;;;6.63;100.00
33404;BME280;19751;40.274;18.268;2023-01-30T00:17:59;101439.22;;;6.58;100.00
33404;BME280;19751;40.274;18.268;2023-01-30T00:20:25;101439.66;;;6.54;100.00
33404;BME280;19751;40.274;18.268;2023-01-30T00:22:50;101445.28;;;6.51;100.00
33404;BME280;19751;40.274;18.268;2023-01-30T00:25:16;101444.47;;;6.50;100.00
33404;BME280;19751;40.274;18.268;2023-01-30T00:27:42;101438.53;;;6.56;100.00
33404;BME280;19751;40.274;18.268;2023-01-30T00:30:08;101437.13;;;6.52;100.00
33404;BME280;19751;40.274;18.268;2023-01-30T00:32:34;101434.31;;;6.54;100.00
33404;BME280;19751;40.274;18.268;2023-01-30T00:34:59;101440.06;;;6.59;100.00
33404;BME280;19751;40.274;18.268;2023-01-30T00:37:25;101435.13;;;6.64;100.00
33404;BME280;19751;40.274;18.268;2023-01-30T00:39:50;101441.56;;;6.71;100.00
33404;BME280;19751;40.274;18.268;2023-01-30T00:42:16;101438.31;;;6.77;100.00
33404;BME280;19751;40.274;18.268;2023-01-30T00:45:00;101435.03;;;6.83;100.00
33404;BME280;19751;40.274;18.268;2023-01-30T00:47:44;101431.38;;;6.84;100.00
33404;BME280;19751;40.274;18.268;2023-01-30T00:50:10;101439.53;;;6.83;100.00
33404;BME280;19751;40.274;18.268;2023-01-30T00:52:35;101434.19;;;6.83;100.00
33404;BME280;19751;40.274;18.268;2023-01-30T00:55:01;101433.91;;;6.86;100.00
33404;BME280;19751;40.274;18.268;2023-01-30T00:57:27;101429.66;;;6.83;100.00
33404;BME280;19751;40.274;18.268;2023-01-30T00:59:52;101431.06;;;6.87;100.00
33404;BME280;19751;40.274;18.268;2023-01-30T01:02:18;101428.09;;;6.90;100.00
33404;BME280;19751;40.274;18.268;2023-01-30T01:04:44;101426.53;;;6.88;100.00
33404;BME280;19751;40.274;18.268;2023-01-30T01:07:10;101429.38;;;6.86;100.00
33404;BME280;19751;40.274;18.268;2023-01-30T01:09:36;101425.31;;;6.82;100.00
33404;BME280;19751;40.274;18.268;2023-01-30T01:12:02;101424.31;;;6.83;100.00
33404;BME280;19751;40.274;18.268;2023-01-30T01:14:28;101422.34;;;6.85;100.00
33404;BME280;19751;40.274;18.268;2023-01-30T01:16:54;101424.03;;;6.86;100.00
33404;BME280;19751;40.274;18.268;2023-01-30T01:19:19;101425.41;;;6.90;100.00
33404;BME280;19751;40.274;18.268;2023-01-30T01:21:45;101422.03;;;6.88;100.00
33404;BME280;19751;40.274;18.268;2023-01-30T01:24:12;101417.38;;;6.90;100.00
33404;BME280;19751;40.274;18.268;2023-01-30T01:26:38;101432.31;;;6.93;100.00
33404;BME280;19751;40.274;18.268;2023-01-30T01:29:04;101422.44;;;6.93;100.00
33404;BME280;19751;40.274;18.268;2023-01-30T01:31:30;101423.50;;;7.01;100.00
33404;BME280;19751;40.274;18.268;2023-01-30T01:33:56;101426.75;;;7.04;100.00
33404;BME280;19751;40.274;18.268;2023-01-30T01:36:21;101417.13;;;7.11;100.00
33404;BME280;19751;40.274;18.268;2023-01-30T01:38:47;101421.34;;;7.14;100.00
33404;BME280;19751;40.274;18.268;2023-01-30T01:41:14;101421.72;;;7.19;100.00
33404;BME280;19751;40.274;18.268;2023-01-30T01:46:49;101426.34;;;7.27;100.00
33404;BME280;19751;40.274;18.268;2023-01-30T01:57:04;101412.66;;;7.47;100.00
33404;BME280;19751;40.274;18.268;2023-01-30T01:59:38;101418.84;;;7.48;100.00
33404;BME280;19751;40.274;18.268;2023-01-30T02:02:08;101423.38;;;7.47;100.00
33404;BME280;19751;40.274;18.268;2023-01-30T02:04:36;101423.06;;;7.51;100.00
33404;BME280;19751;40.274;18.268;2023-01-30T02:07:22;101417.72;;;7.51;100.00
33404;BME280;19751;40.274;18.268;2023-01-30T02:09:49;101409.81;;;7.49;100.00
33404;BME280;19751;40.274;18.268;2023-01-30T02:12:16;101410.66;;;7.50;100.00
33404;BME280;19751;40.274;18.268;2023-01-30T02:14:42;101407.97;;;7.50;100.00
33404;BME280;19751;40.274;18.268;2023-01-30T02:17:07;101405.28;;;7.50;100.00
33404;BME280;19751;40.274;18.268;2023-01-30T02:19:45;101402.47;;;7.51;100.00
33404;BME280;19751;40.274;18.268;2023-01-30T02:35:23;101399.13;;;7.75;100.00
33404;BME280;19751;40.274;18.268;2023-01-30T02:48:45;101402.22;;;7.80;100.00
33404;BME280;19751;40.274;18.268;2023-01-30T02:51:19;101397.47;;;7.74;100.00
33404;BME280;19751;40.274;18.268;2023-01-30T02:53:46;101398.69;;;7.62;100.00
33404;BME280;19751;40.274;18.268;2023-01-30T02:56:13;101397.31;;;7.58;100.00
33404;BME280;19751;40.274;18.268;2023-01-30T02:58:42;101382.69;;;7.52;100.00
33404;BME280;19751;40.274;18.268;2023-01-30T03:06:40;101390.66;;;7.44;100.00
33404;BME280;19751;40.274;18.268;2023-01-30T03:09:29;101398.72;;;7.44;100.00
33404;BME280;19751;40.274;18.268;2023-01-30T03:12:10;101391.22;;;7.47;100.00
33404;BME280;19751;40.274;18.268;2023-01-30T03:15:04;101388.66;;;7.46;100.00
33404;BME280;19751;40.274;18.268;2023-01-30T03:17:33;101392.88;;;7.48;100.00
33404;BME280;19751;40.274;18.268;2023-01-30T03:19:59;101390.03;;;7.50;100.00
33404;BME280;19751;40.274;18.268;2023-01-30T03:22:25;101385.53;;;7.51;100.00
33404;BME280;19751;40.274;18.268;2023-01-30T03:24:52;101393.44;;;7.52;100.00
33404;BME280;19751;40.274;18.268;2023-01-30T03:27:19;101399.31;;;7.56;100.00
33404;BME280;19751;40.274;18.268;2023-01-30T03:29:45;101406.19;;;7.58;100.00
33404;BME280;19751;40.274;18.268;2023-01-30T03:32:11;101400.38;;;7.63;100.00
33404;BME280;19751;40.274;18.268;2023-01-30T03:34:37;101398.69;;;7.62;100.00
33404;BME280;19751;40.274;18.268;2023-01-30T03:37:03;101394.63;;;7.58;100.00
33404;BME280;19751;40.274;18.268;2023-01-30T03:39:29;101385.97;;;7.46;100.00
33404;BME280;19751;40.274;18.268;2023-01-30T03:41:55;101384.53;;;7.34;100.00
33404;BME280;19751;40.274;18.268;2023-01-30T03:44:20;101378.16;;;7.17;100.00
33404;BME280;19751;40.274;18.268;2023-01-30T03:46:46;101379.78;;;7.10;100.00
33404;BME280;19751;40.274;18.268;2023-01-30T03:49:11;101376.09;;;7.11;100.00
33404;BME280;19751;40.274;18.268;2023-01-30T03:51:37;101376.25;;;7.09;100.00
33404;BME280;19751;40.274;18.268;2023-01-30T03:54:03;101374.72;;;7.07;100.00
33404;BME280;19751;40.274;18.268;2023-01-30T03:56:29;101372.50;;;7.02;100.00
33404;BME280;19751;40.274;18.268;2023-01-30T03:58:55;101372.63;;;7.01;100.00
33404;BME280;19751;40.274;18.268;2023-01-30T04:01:21;101377.00;;;7.02;100.00
33404;BME280;19751;40.274;18.268;2023-01-30T04:03:47;101375.16;;;7.02;100.00
33404;BME280;19751;40.274;18.268;2023-01-30T04:06:12;101367.13;;;7.02;100.00
33404;BME280;19751;40.274;18.268;2023-01-30T04:08:38;101370.09;;;6.99;100.00
33404;BME280;19751;40.274;18.268;2023-01-30T04:11:04;101364.22;;;6.95;100.00
33404;BME280;19751;40.274;18.268;2023-01-30T04:13:29;101361.81;;;6.92;100.00
33404;BME280;19751;40.274;18.268;2023-01-30T04:16:15;101363.53;;;6.93;100.00
33404;BME280;19751;40.274;18.268;2023-01-30T04:18:41;101366.88;;;6.95;100.00
33404;BME280;19751;40.274;18.268;2023-01-30T04:21:07;101359.69;;;6.96;100.00
33404;BME280;19751;40.274;18.268;2023-01-30T04:23:32;101365.38;;;6.93;100.00
33404;BME280;19751;40.274;18.268;2023-01-30T04:25:58;101360.13;;;6.91;100.00
33404;BME280;19751;40.274;18.268;2023-01-30T04:28:23;101357.75;;;6.88;100.00
33404;BME280;19751;40.274;18.268;2023-01-30T04:30:51;101354.94;;;6.90;100.00
33404;BME280;19751;40.274;18.268;2023-01-30T04:33:17;101353.72;;;6.84;100.00
33404;BME280;19751;40.274;18.268;2023-01-30T04:35:51;101348.94;;;6.78;100.00
33404;BME280;19751;40.274;18.268;2023-01-30T04:38:16;101348.50;;;6.83;100.00
33404;BME280;19751;40.274;18.268;2023-01-30T04:40:47;101354.78;;;6.91;100.00
33404;BME280;19751;40.274;18.268;2023-01-30T04:43:13;101353.34;;;6.97;100.00
33404;BME280;19751;40.274;18.268;2023-01-30T04:45:42;101354.88;;;7.00;100.00
33404;BME280;19751;40.274;18.268;2023-01-30T04:48:07;101357.44;;;7.01;100.00
33404;BME280;19751;40.274;18.268;2023-01-30T04:50:33;101355.25;;;7.05;100.00
33404;BME280;19751;40.274;18.268;2023-01-30T04:52:59;101350.53;;;6.98;100.00
33404;BME280;19751;40.274;18.268;2023-01-30T04:55:24;101354.19;;;6.97;100.00
33404;BME280;19751;40.274;18.268;2023-01-30T04:57:50;101345.31;;;6.97;100.00
33404;BME280;19751;40.274;18.268;2023-01-30T05:00:15;101346.00;;;6.99;100.00
33404;BME280;19751;40.274;18.268;2023-01-30T05:02:41;101342.19;;;7.02;100.00
33404;BME280;19751;40.274;18.268;2023-01-30T05:05:07;101344.94;;;7.10;100.00
33404;BME280;19751;40.274;18.268;2023-01-30T05:07:32;101357.88;;;7.14;100.00
33404;BME280;19751;40.274;18.268;2023-01-30T05:09:58;101346.88;;;7.17;100.00
33404;BME280;19751;40.274;18.268;2023-01-30T05:12:23;101351.59;;;7.23;100.00
33404;BME280;19751;40.274;18.268;2023-01-30T05:14:49;101350.31;;;7.28;100.00
33404;BME280;19751;40.274;18.268;2023-01-30T05:17:14;101349.19;;;7.30;100.00
33404;BME280;19751;40.274;18.268;2023-01-30T05:19:40;101348.16;;;7.31;100.00
33404;BME280;19751;40.274;18.268;2023-01-30T05:22:06;101356.59;;;7.36;100.00
33404;BME280;19751;40.274;18.268;2023-01-30T05:24:31;101356.97;;;7.41;100.00
33404;BME280;19751;40.274;18.268;2023-01-30T05:26:57;101355.81;;;7.44;100.00
33404;BME280;19751;40.274;18.268;2023-01-30T05:29:22;101365.25;;;7.48;100.00
33404;BME280;19751;40.274;18.268;2023-01-30T05:31:48;101364.25;;;7.49;100.00
33404;BME280;19751;40.274;18.268;2023-01-30T05:34:13;101363.56;;;7.47;100.00
33404;BME280;19751;40.274;18.268;2023-01-30T05:36:39;101370.78;;;7.46;100.00
33404;BME280;19751;40.274;18.268;2023-01-30T05:39:04;101382.16;;;7.48;100.00
33404;BME280;19751;40.274;18.268;2023-01-30T05:41:30;101375.13;;;7.47;100.00
33404;BME280;19751;40.274;18.268;2023-01-30T05:43:55;101379.41;;;7.40;100.00
33404;BME280;19751;40.274;18.268;2023-01-30T05:46:21;101376.19;;;7.37;100.00
33404;BME280;19751;40.274;18.268;2023-01-30T05:48:47;101369.44;;;7.33;100.00
33404;BME280;19751;40.274;18.268;2023-01-30T05:51:22;101383.69;;;7.33;100.00
33404;BME280;19751;40.274;18.268;2023-01-30T05:53:48;101379.03;;;7.35;100.00
33404;BME280;19751;40.274;18.268;2023-01-30T05:56:14;101375.56;;;7.25;100.00
33404;BME280;19751;40.274;18.268;2023-01-30T05:58:40;101380.53;;;7.20;100.00
33404;BME280;19751;40.274;18.268;2023-01-30T06:01:09;101379.53;;;7.21;100.00
33404;BME280;19751;40.274;18.268;2023-01-30T06:03:35;101383.69;;;7.15;100.00
33404;BME280;19751;40.274;18.268;2023-01-30T06:06:02;101390.34;;;7.11;100.00
33404;BME280;19751;40.274;18.268;2023-01-30T06:08:28;101384.59;;;7.06;100.00
33404;BME280;19751;40.274;18.268;2023-01-30T06:10:59;101393.75;;;7.04;100.00
33404;BME280;19751;40.274;18.268;2023-01-30T06:13:25;101396.81;;;7.09;100.00
33404;BME280;19751;40.274;18.268;2023-01-30T06:15:51;101398.81;;;7.07;100.00
33404;BME280;19751;40.274;18.268;2023-01-30T06:18:16;101402.97;;;7.01;100.00
33404;BME280;19751;40.274;18.268;2023-01-30T06:20:49;101402.63;;;7.04;100.00
33404;BME280;19751;40.274;18.268;2023-01-30T06:23:16;101403.47;;;7.05;100.00
33404;BME280;19751;40.274;18.268;2023-01-30T06:25:43;101394.94;;;7.01;100.00
33404;BME280;19751;40.274;18.268;2023-01-30T06:28:09;101399.97;;;7.04;100.00
33404;BME280;19751;40.274;18.268;2023-01-30T06:30:34;101399.41;;;7.01;100.00
33404;BME280;19751;40.274;18.268;2023-01-30T06:33:00;101404.09;;;6.98;100.00
33404;BME280;19751;40.274;18.268;2023-01-30T06:35:25;101401.41;;;6.98;100.00
33404;BME280;19751;40.274;18.268;2023-01-30T06:37:51;101396.59;;;7.02;100.00
33404;BME280;19751;40.274;18.268;2023-01-30T06:40:16;101407.31;;;7.02;100.00
33404;BME280;19751;40.274;18.268;2023-01-30T06:42:46;101409.69;;;7.05;100.00
33404;BME280;19751;40.274;18.268;2023-01-30T06:45:13;101407.03;;;7.05;100.00
33404;BME280;19751;40.274;18.268;2023-01-30T06:47:53;101404.56;;;7.12;100.00
33404;BME280;19751;40.274;18.268;2023-01-30T06:50:21;101411.75;;;7.11;100.00
33404;BME280;19751;40.274;18.268;2023-01-30T06:52:49;101409.47;;;7.16;100.00
33404;BME280;19751;40.274;18.268;2023-01-30T06:55:17;101408.09;;;7.12;100.00
33404;BME280;19751;40.274;18.268;2023-01-30T06:57:43;101408.34;;;7.19;100.00
33404;BME280;19751;40.274;18.268;2023-01-30T07:00:14;101413.06;;;7.25;100.00
33404;BME280;19751;40.274;18.268;2023-01-30T07:02:42;101413.41;;;7.22;100.00
33404;BME280;19751;40.274;18.268;2023-01-30T07:05:08;101419.59;;;7.22;100.00
33404;BME280;19751;40.274;18.268;2023-01-30T07:07:35;101419.34;;;7.16;100.00
33404;BME280;19751;40.274;18.268;2023-01-30T07:10:04;101420.06;;;7.18;100.00
33404;BME280;19751;40.274;18.268;2023-01-30T07:12:30;101414.53;;;7.19;100.00
33404;BME280;19751;40.274;18.268;2023-01-30T07:14:56;101425.78;;;7.23;100.00
33404;BME280;19751;40.274;18.268;2023-01-30T07:17:23;101421.19;;;7.33;100.00
33404;BME280;19751;40.274;18.268;2023-01-30T07:19:49;101425.69;;;7.42;100.00
33404;BME280;19751;40.274;18.268;2023-01-30T07:22:15;101423.06;;;7.51;100.00
33404;BME280;19751;40.274;18.268;2023-01-30T07:24:41;101436.84;;;7.56;100.00
33404;BME280;19751;40.274;18.268;2023-01-30T07:27:10;101441.47;;;7.63;100.00
33404;BME280;19751;40.274;18.268;2023-01-30T07:29:37;101428.44;;;7.68;100.00
33404;BME280;19751;40.274;18.268;2023-01-30T07:32:04;101429.66;;;7.74;100.00
33404;BME280;19751;40.274;18.268;2023-01-30T07:34:30;101433.69;;;7.78;100.00
33404;BME280;19751;40.274;18.268;2023-01-30T07:36:56;101437.94;;;7.81;100.00
33404;BME280;19751;40.274;18.268;2023-01-30T07:39:21;101434.41;;;7.80;100.00
33404;BME280;19751;40.274;18.268;2023-01-30T07:41:47;101436.09;;;7.81;100.00
33404;BME280;19751;40.274;18.268;2023-01-30T07:44:13;101443.44;;;7.79;100.00
33404;BME280;19751;40.274;18.268;2023-01-30T07:46:38;101445.69;;;7.84;100.00
33404;BME280;19751;40.274;18.268;2023-01-30T07:49:05;101441.44;;;7.81;100.00
33404;BME280;19751;40.274;18.268;2023-01-30T07:51:31;101444.66;;;7.85;100.00
33404;BME280;19751;40.274;18.268;2023-01-30T07:53:57;101438.84;;;7.89;100.00
33404;BME280;19751;40.274;18.268;2023-01-30T07:56:23;101439.91;;;7.96;100.00
33404;BME280;19751;40.274;18.268;2023-01-30T07:58:49;101439.91;;;7.96;100.00
33404;BME280;19751;40.274;18.268;2023-01-30T08:01:16;101443.81;;;8.02;100.00
33404;BME280;19751;40.274;18.268;2023-01-30T08:03:42;101436.41;;;8.04;100.00
33404;BME280;19751;40.274;18.268;2023-01-30T08:06:10;101428.78;;;8.09;100.00
33404;BME280;19751;40.274;18.268;2023-01-30T08:08:36;101425.63;;;8.14;100.00
33404;BME280;19751;40.274;18.268;2023-01-30T08:11:02;101433.31;;;8.17;100.00
33404;BME280;19751;40.274;18.268;2023-01-30T08:13:27;101432.34;;;8.18;100.00
33404;BME280;19751;40.274;18.268;2023-01-30T08:15:53;101427.00;;;8.18;100.00
33404;BME280;19751;40.274;18.268;2023-01-30T08:18:18;101432.66;;;8.15;100.00
33404;BME280;19751;40.274;18.268;2023-01-30T08:20:44;101433.13;;;8.10;100.00
33404;BME280;19751;40.274;18.268;2023-01-30T08:23:10;101428.97;;;8.16;100.00
33404;BME280;19751;40.274;18.268;2023-01-30T08:25:36;101435.03;;;8.18;100.00
33404;BME280;19751;40.274;18.268;2023-01-30T08:28:02;101434.56;;;8.22;100.00
33404;BME280;19751;40.274;18.268;2023-01-30T08:30:28;101438.16;;;8.31;100.00
33404;BME280;19751;40.274;18.268;2023-01-30T08:32:55;101426.56;;;8.31;100.00
33404;BME280;19751;40.274;18.268;2023-01-30T08:35:21;101432.78;;;8.31;100.00
33404;BME280;19751;40.274;18.268;2023-01-30T08:37:46;101439.50;;;8.35;100.00
33404;BME280;19751;40.274;18.268;2023-01-30T08:40:12;101435.72;;;8.38;100.00
33404;BME280;19751;40.274;18.268;2023-01-30T08:42:38;101441.09;;;8.38;100.00
33404;BME280;19751;40.274;18.268;2023-01-30T08:45:04;101436.69;;;8.37;100.00
33404;BME280;19751;40.274;18.268;2023-01-30T08:47:30;101434.97;;;8.36;100.00
33404;BME280;19751;40.274;18.268;2023-01-30T08:49:56;101441.50;;;8.33;100.00
33404;BME280;19751;40.274;18.268;2023-01-30T08:52:22;101440.13;;;8.29;100.00
33404;BME280;19751;40.274;18.268;2023-01-30T08:54:48;101436.38;;;8.40;100.00
33404;BME280;19751;40.274;18.268;2023-01-30T08:57:14;101436.91;;;8.43;100.00
33404;BME280;19751;40.274;18.268;2023-01-30T08:59:40;101442.81;;;8.47;100.00
33404;BME280;19751;40.274;18.268;2023-01-30T09:02:08;101442.34;;;8.52;100.00
33404;BME280;19751;40.274;18.268;2023-01-30T09:04:34;101439.34;;;8.55;100.00
33404;BME280;19751;40.274;18.268;2023-01-30T09:06:59;101440.47;;;8.52;100.00
33404;BME280;19751;40.274;18.268;2023-01-30T09:09:27;101437.63;;;8.54;100.00
33404;BME280;19751;40.274;18.268;2023-01-30T09:11:53;101443.53;;;8.57;100.00
33404;BME280;19751;40.274;18.268;2023-01-30T09:14:18;101444.22;;;8.59;100.00
33404;BME280;19751;40.274;18.268;2023-01-30T09:16:45;101448.41;;;8.62;100.00
33404;BME280;19751;40.274;18.268;2023-01-30T09:19:12;101452.47;;;8.66;100.00
33404;BME280;19751;40.274;18.268;2023-01-30T09:21:38;101451.50;;;8.67;100.00
33404;BME280;19751;40.274;18.268;2023-01-30T09:24:04;101455.16;;;8.66;100.00
33404;BME280;19751;40.274;18.268;2023-01-30T09:26:30;101447.44;;;8.63;100.00
33404;BME280;19751;40.274;18.268;2023-01-30T09:28:55;101448.06;;;8.57;100.00
33404;BME280;19751;40.274;18.268;2023-01-30T09:31:21;101446.53;;;8.54;100.00
33404;BME280;19751;40.274;18.268;2023-01-30T09:33:47;101448.06;;;8.57;100.00
33404;BME280;19751;40.274;18.268;2023-01-30T09:36:12;101435.34;;;8.59;100.00
33404;BME280;19751;40.274;18.268;2023-01-30T09:38:38;101447.06;;;8.58;100.00
33404;BME280;19751;40.274;18.268;2023-01-30T09:43:51;101447.34;;;8.46;100.00
33404;BME280;19751;40.274;18.268;2023-01-30T09:49:10;101445.00;;;8.52;100.00
33404;BME280;19751;40.274;18.268;2023-01-30T09:54:34;101445.44;;;8.65;100.00
33404;BME280;19751;40.274;18.268;2023-01-30T09:57:10;101436.69;;;8.63;100.00
33404;BME280;19751;40.274;18.268;2023-01-30T10:05:45;101424.34;;;8.78;100.00
33404;BME280;19751;40.274;18.268;2023-01-30T10:14:09;101416.31;;;8.86;100.00
33404;BME280;19751;40.274;18.268;2023-01-30T10:22:15;101403.59;;;8.96;100.00
33404;BME280;19751;40.274;18.268;2023-01-30T10:25:11;101400.06;;;8.96;100.00
33404;BME280;19751;40.274;18.268;2023-01-30T10:27:47;101397.53;;;8.94;100.00
33404;BME280;19751;40.274;18.268;2023-01-30T10:30:15;101404.75;;;8.94;100.00
33404;BME280;19751;40.274;18.268;2023-01-30T10:32:47;101395.03;;;8.93;100.00
33404;BME280;19751;40.274;18.268;2023-01-30T10:35:20;101390.97;;;8.89;100.00
33404;BME280;19751;40.274;18.268;2023-01-30T10:39:00;101384.59;;;8.90;100.00
33404;BME280;19751;40.274;18.268;2023-01-30T10:44:05;101376.03;;;8.94;100.00
33404;BME280;19751;40.274;18.268;2023-01-30T10:46:58;101375.41;;;9.01;100.00
33404;BME280;19751;40.274;18.268;2023-01-30T10:52:09;101360.78;;;9.03;100.00
33404;BME280;19751;40.274;18.268;2023-01-30T10:57:48;101356.41;;;9.02;100.00
33404;BME280;19751;40.274;18.268;2023-01-30T11:05:22;101343.31;;;9.07;100.00
33404;BME280;19751;40.274;18.268;2023-01-30T11:07:49;101341.00;;;9.12;100.00
33404;BME280;19751;40.274;18.268;2023-01-30T11:10:19;101345.19;;;9.15;100.00
33404;BME280;19751;40.274;18.268;2023-01-30T11:12:45;101347.03;;;9.14;100.00
33404;BME280;19751;40.274;18.268;2023-01-30T11:15:11;101345.88;;;9.17;100.00
33404;BME280;19751;40.274;18.268;2023-01-30T11:17:41;101342.84;;;9.20;100.00
33404;BME280;19751;40.274;18.268;2023-01-30T11:20:12;101342.31;;;9.16;100.00
33404;BME280;19751;40.274;18.268;2023-01-30T11:22:51;101330.91;;;9.14;100.00
33404;BME280;19751;40.274;18.268;2023-01-30T11:25:24;101333.78;;;9.13;100.00
33404;BME280;19751;40.274;18.268;2023-01-30T11:27:56;101323.69;;;9.15;100.00
33404;BME280;19751;40.274;18.268;2023-01-30T11:30:29;101322.34;;;9.19;100.00
33404;BME280;19751;40.274;18.268;2023-01-30T11:33:34;101319.00;;;9.25;100.00
33404;BME280;19751;40.274;18.268;2023-01-30T11:36:04;101315.31;;;9.26;100.00
33404;BME280;19751;40.274;18.268;2023-01-30T11:38:32;101310.78;;;9.27;100.00
33404;BME280;19751;40.274;18.268;2023-01-30T11:41:06;101301.69;;;9.28;100.00
33404;BME280;19751;40.274;18.268;2023-01-30T11:43:38;101303.88;;;9.32;100.00
33404;BME280;19751;40.274;18.268;2023-01-30T11:46:08;101294.97;;;9.40;100.00
33404;BME280;19751;40.274;18.268;2023-01-30T11:48:54;101294.31;;;9.46;100.00
33404;BME280;19751;40.274;18.268;2023-01-30T11:51:23;101288.75;;;9.48;100.00
33404;BME280;19751;40.274;18.268;2023-01-30T11:53:57;101292.63;;;9.45;100.00
33404;BME280;19751;40.274;18.268;2023-01-30T11:56:35;101296.31;;;9.44;100.00
33404;BME280;19751;40.274;18.268;2023-01-30T11:59:59;101283.56;;;9.46;100.00
33404;BME280;19751;40.274;18.268;2023-01-30T12:02:32;101276.97;;;9.49;100.00
33404;BME280;19751;40.274;18.268;2023-01-30T12:05:15;101271.97;;;9.45;100.00
33404;BME280;19751;40.274;18.268;2023-01-30T12:07:43;101258.84;;;9.42;100.00
33404;BME280;19751;40.274;18.268;2023-01-30T12:12:54;101252.13;;;9.46;100.00
33404;BME280;19751;40.274;18.268;2023-01-30T12:15:22;101245.72;;;9.56;100.00
33404;BME280;19751;40.274;18.268;2023-01-30T12:25:43;101246.22;;;9.67;100.00
33404;BME280;19751;40.274;18.268;2023-01-30T12:28:31;101241.84;;;9.66;100.00
33404;BME280;19751;40.274;18.268;2023-01-30T12:31:25;101240.34;;;9.64;100.00
33404;BME280;19751;40.274;18.268;2023-01-30T12:33:51;101228.41;;;9.58;100.00
33404;BME280;19751;40.274;18.268;2023-01-30T12:44:25;101220.50;;;9.57;100.00
33404;BME280;19751;40.274;18.268;2023-01-30T12:49:44;101225.53;;;9.68;100.00
33404;BME280;19751;40.274;18.268;2023-01-30T12:55:21;101229.22;;;9.75;100.00
33404;BME280;19751;40.274;18.268;2023-01-30T12:58:04;101231.06;;;9.75;100.00
33404;BME280;19751;40.274;18.268;2023-01-30T13:08:16;101229.91;;;9.53;100.00
33404;BME280;19751;40.274;18.268;2023-01-30T13:22:14;101211.44;;;9.50;100.00
33404;BME280;19751;40.274;18.268;2023-01-30T13:25:01;101212.63;;;9.47;100.00
33404;BME280;19751;40.274;18.268;2023-01-30T13:27:33;101216.81;;;9.50;100.00
33404;BME280;19751;40.274;18.268;2023-01-30T13:30:05;101216.84;;;9.41;100.00
33404;BME280;19751;40.274;18.268;2023-01-30T13:32:38;101215.66;;;9.36;100.00
33404;BME280;19751;40.274;18.268;2023-01-30T13:35:24;101213.66;;;9.38;100.00
33404;BME280;19751;40.274;18.268;2023-01-30T13:37:53;101215.16;;;9.40;100.00
33404;BME280;19751;40.274;18.268;2023-01-30T13:40:43;101207.09;;;9.40;100.00
33404;BME280;19751;40.274;18.268;2023-01-30T13:43:37;101206.56;;;9.45;100.00
33404;BME280;19751;40.274;18.268;2023-01-30T13:46:09;101206.06;;;9.50;100.00
33404;BME280;19751;40.274;18.268;2023-01-30T13:48:39;101195.66;;;9.55;100.00
33404;BME280;19751;40.274;18.268;2023-01-30T14:07:39;101192.19;;;9.85;100.00
33404;BME280;19751;40.274;18.268;2023-01-30T14:12:44;101186.31;;;9.82;100.00
33404;BME280;19751;40.274;18.268;2023-01-30T14:17:59;101187.97;;;9.83;100.00
33404;BME280;19751;40.274;18.268;2023-01-30T14:20:31;101186.81;;;9.85;100.00
33404;BME280;19751;40.274;18.268;2023-01-30T14:22:59;101183.09;;;9.86;100.00
33404;BME280;19751;40.274;18.268;2023-01-30T14:30:46;101189.53;;;9.77;100.00
33404;BME280;19751;40.274;18.268;2023-01-30T14:35:44;101181.13;;;9.72;100.00
33404;BME280;19751;40.274;18.268;2023-01-30T14:38:17;101193.25;;;9.68;100.00
33404;BME280;19751;40.274;18.268;2023-01-30T14:40:48;101180.13;;;9.65;100.00
33404;BME280;19751;40.274;18.268;2023-01-30T14:56:57;101178.13;;;9.67;100.00
33404;BME280;19751;40.274;18.268;2023-01-30T14:59:37;101177.63;;;9.63;100.00
33404;BME280;19751;40.274;18.268;2023-01-30T15:04:44;101178.81;;;9.61;100.00
33404;BME280;19751;40.274;18.268;2023-01-30T15:07:15;101174.44;;;9.60;100.00
33404;BME280;19751;40.274;18.268;2023-01-30T15:09:49;101171.75;;;9.60;100.00
33404;BME280;19751;40.274;18.268;2023-01-30T15:21:32;101174.25;;;9.61;100.00
33404;BME280;19751;40.274;18.268;2023-01-30T15:27:08;101176.81;;;9.63;100.00
33404;BME280;19751;40.274;18.268;2023-01-30T15:32:25;101184.53;;;9.58;100.00
33404;BME280;19751;40.274;18.268;2023-01-30T15:35:25;101179.31;;;9.56;100.00
33404;BME280;19751;40.274;18.268;2023-01-30T15:37:56;101185.03;;;9.53;100.00
33404;BME280;19751;40.274;18.268;2023-01-30T15:40:26;101180.69;;;9.52;100.00
33404;BME280;19751;40.274;18.268;2023-01-30T15:43:03;101186.25;;;9.51;100.00
33404;BME280;19751;40.274;18.268;2023-01-30T15:49:17;101185.41;;;9.42;100.00
33404;BME280;19751;40.274;18.268;2023-01-30T15:51:25;101187.09;;;9.43;100.00
33404;BME280;19751;40.274;18.268;2023-01-30T15:53:53;101184.22;;;9.44;100.00
33404;BME280;19751;40.274;18.268;2023-01-30T15:56:23;101194.97;;;9.44;100.00
33404;BME280;19751;40.274;18.268;2023-01-30T15:58:50;101190.94;;;9.40;100.00